Kakabeka Falls, Canada
Current Conditions -  °F | °C
As of 7:37 AM on Saturday 20 Dec 2014 (Local Time) from CYQT Reporting Station
Light Snow Light Snow  
Wind Chill: 23°   Ceiling: 1900
Heat Index: 23°   Visibility: 15mi
Dew Point: 23°   Wind: 2mph
Humidity: 100%   Direction: 270°W
Pressure: 30.19"   Gusts: NA
Location:  48.4°N, 89.61°W
Report Text: CYQT 201237Z 27002KT 15SM -SN OVC019 M05/M05 A3019 RMK SC8 SLP239
Loading
Personal Weather Stations






























Interactive Weather Map New forecast layout! Learn more

10-Day Weather Forecast

Advertisements
Track Severe Weather on mobile